Walgett, Australia
Current Conditions -  °F | °C
As of 1:00 PM on Tuesday 21 Oct 2014 (Local Time) from YMOR Reporting Station
Clear Clear  
Wind Chill: 81°   Ceiling: Unl
Heat Index: 81°   Visibility: 6mi
Dew Point: 50°   Wind: 3mph
Humidity: 34%   Direction: 350°N
Pressure: 30.27"   Gusts: NA
Location:  30.02°S, 148.12°E
Report Text: YMOR 210200Z 35003KT CAVOK 27/10 Q1025
Loading
Personal Weather Stations






























Interactive Weather Map
Tropical Storm Tracking
New forecast layout! Learn more

10-Day Weather Forecast

Advertisements
Track Severe Weather on mobile